Hauptseite
METAR-TAF:

METAR-TAF

Flughäfen :

Fliegerhorst Nörvenich

Nörvenich, Deutschland

Breite: 50-50N, Länge: 006-40E, Höhe: 118 m

Beobachtung

Neuester Wetterbericht von vor 1 Stunde und 12 Minuten, um 23:20 UTC
Wind 1 kt aus Süd
Temperatur 2°C
Luftfeuchtigkeit 87%
Luftdruck 1018 hPa
Sichtweite 10 km oder mehr

METAR: ETNN 072320Z 18001KT 9999 02/00 Q1018 BLU+

Zeit: 02:32 (00:32 UTC)

Prognose

Neuester Wetterbericht von vor 15 Stunden und 17 Minuten, um 09:15 UTC
Gültige Prognose vom 07 um 09 UTC bis 07 um 17 UTC
Wind 10 kt aus West
Sichtweite 10 km oder mehr
Aufgelockert bewölkt in der Höhe von 2000 ft
Durchbrochene Bewölkung in der Höhe von 3000 ft
Zeitweise
vom 07 um 09 UTC bis 07 um 10 UTC
Wind 12 kt aus West/Nordwest
Sichtweite 10 km oder mehr
Durchbrochene Bewölkung in der Höhe von 1000 ft

TAF: ETNN 070915Z 0709/0717 28010KT 9999 NSW SCT020 BKN030 TEMPO 0709/0710 30012KT 9999 NSW BKN010 BY ETGL

Wetterbeobachtungen und Prognosen von mehr als 4000 Flughäfen (METAR und TAF Bericht).

Die verfügbaren Stationen werden durch gelbe und rote Markierungen auf der Karte dargestellt.

Führen Sie die Maus auf sie, um den Namen der Station zu sehen.

Darauf klicken, um die Beobachtung von Wetterbeobachtungen und Prognosen zu sehen.

Um die Karte zu ändern : klicken Sie auf den grünen Tasten mit einem schwarzen Kreuz Zum Vergrößern, auf den grünen Button mit einem Gedankenstrich zu verkleinern, oder auf die grünen Pfeile für benachbarte Karten.


METAR-TAF: